KSKF/SKF METAR and TAF weather

Enter ICAO airport designator
Station Type Date Time Source
KSKF METAR 2019/06/18 23:56 UTC NOAA

KSKF 182356Z AUTO 14006KT 10SM CLR 32/21 A2982 RMK AO2 SLP090 60000 T03240212 10339 20315 57019 CHINO RWY34 $


Station Type Date Time Source
KSKF Decoded METAR 2019/06/18 23:56 UTC NOAA

Kelly Air Force Base, TX, United States (KSKF) 29-23N 098-35W
Jun 18, 2019 - 07:56 PM EDT / 2019.06.18 2356 UTC
Wind: from the SE (140 degrees) at 7 MPH (6 KT):0
Visibility: 10 mile(s):0
Sky conditions: clear
Temperature: 90.3 F (32.4 C)
Heat index: 95.7 F (35.4 C):1
Dew Point: 70.2 F (21.2 C)
Relative Humidity: 51%
Pressure (altimeter): 29.82 in. Hg (1009 hPa)
Pressure tendency: 0.06 inches (1.9 hPa) lower than three hours ago
ob: KSKF 182356Z AUTO 14006KT 10SM CLR 32/21 A2982 RMK AO2 SLP090 60000 T03240212 10339 20315 57019 CHINO RWY34
cycle: 0

Station Type Date Time Source
KSKF TAF 2019/06/18 18:57 UTC NOAA

TAF
AMD KSKF 181838Z 1818/1924 15010KT 9999 BKN200 QNH2980INS
BECMG 1909/1910 16008KT 6000 BR OVC003 QNH2985INS
BECMG 1912/1913 16010G15KT 8000 BR SCT010 QNH2984INS
BECMG 1917/1918 18012G18KT 9999 NSW SKC QNH2972INS
BECMG 1923/1924 17012G22KT 9999 SKC QNH2969INS TX37/1822Z TN24/1912Z

Example: see airport list